createdAt,value
2018-12-29T00:01:19.429Z,45.30
2018-12-29T00:03:52.863Z,51.00
2018-12-29T00:06:26.307Z,47.47
2018-12-29T00:08:59.821Z,43.53
2018-12-29T00:11:33.361Z,49.47
2018-12-29T00:14:07.960Z,53.93
2018-12-29T00:16:41.507Z,57.93
2018-12-29T00:19:15.011Z,51.43
2018-12-29T00:21:48.492Z,45.57
2018-12-29T00:24:21.995Z,48.40
2018-12-29T00:26:55.619Z,85.63
2018-12-29T00:29:29.127Z,48.43
2018-12-29T00:32:02.867Z,47.90
2018-12-29T00:34:36.313Z,52.47
2018-12-29T00:37:09.860Z,53.47
2018-12-29T00:39:43.367Z,48.23
2018-12-29T00:42:16.988Z,46.20
2018-12-29T00:44:50.580Z,44.93
2018-12-29T00:47:24.192Z,43.13
2018-12-29T00:49:57.673Z,45.50
2018-12-29T00:52:31.131Z,41.50
2018-12-29T00:55:04.722Z,54.13
2018-12-29T00:57:38.272Z,44.73
2018-12-29T01:00:11.859Z,49.00
2018-12-29T01:02:45.490Z,43.83
2018-12-29T01:05:19.113Z,43.00
2018-12-29T01:07:52.717Z,46.67
2018-12-29T01:10:26.151Z,45.50
2018-12-29T01:12:59.868Z,59.23
2018-12-29T01:15:33.470Z,44.13
2018-12-29T01:18:07.294Z,43.37
2018-12-29T01:20:40.842Z,41.67
2018-12-29T01:23:14.448Z,43.70
2018-12-29T01:25:47.958Z,45.47
2018-12-29T01:28:21.528Z,46.63
2018-12-29T01:30:54.957Z,45.50
2018-12-29T01:33:28.591Z,41.23
2018-12-29T01:36:02.097Z,41.97
2018-12-29T01:38:35.706Z,46.97
2018-12-29T01:41:09.213Z,43.73
2018-12-29T01:43:42.744Z,42.47
2018-12-29T01:46:16.266Z,38.70
2018-12-29T01:48:49.970Z,42.60
2018-12-29T01:51:23.468Z,48.80
2018-12-29T01:53:57.087Z,43.03
2018-12-29T01:56:30.601Z,46.20
2018-12-29T01:59:04.240Z,70.27
2018-12-29T02:01:37.697Z,49.27
2018-12-29T02:04:11.478Z,42.00
2018-12-29T02:06:44.903Z,42.57
2018-12-29T02:09:18.536Z,43.30
2018-12-29T02:11:51.976Z,40.80
2018-12-29T02:14:25.593Z,43.40
2018-12-29T02:16:59.092Z,58.13
2018-12-29T02:19:32.609Z,51.33
2018-12-29T02:22:06.146Z,49.40
2018-12-29T02:24:39.671Z,50.23
2018-12-29T02:27:13.212Z,45.47
2018-12-29T02:29:46.816Z,45.83
2018-12-29T02:32:20.274Z,53.10
2018-12-29T02:34:53.842Z,51.40
2018-12-29T02:37:27.456Z,46.73
2018-12-29T02:40:00.885Z,50.23
2018-12-29T02:42:34.519Z,44.27
2018-12-29T02:45:08.122Z,45.77
2018-12-29T02:47:41.810Z,56.70
2018-12-29T02:50:15.442Z,56.93
2018-12-29T02:52:49.051Z,47.10
2018-12-29T02:55:22.498Z,54.33
2018-12-29T02:57:56.093Z,50.40
2018-12-29T03:00:29.663Z,50.43
2018-12-29T03:03:03.151Z,68.27
2018-12-29T03:05:36.592Z,59.10
2018-12-29T03:08:10.145Z,45.87
2018-12-29T03:10:43.584Z,52.07
2018-12-29T03:13:17.132Z,57.50
2018-12-29T03:15:50.636Z,49.20
2018-12-29T03:18:24.446Z,52.53
2018-12-29T03:20:58.029Z,52.50
2018-12-29T03:23:31.674Z,56.40
2018-12-29T03:26:05.257Z,58.47
2018-12-29T03:28:38.817Z,50.67
2018-12-29T03:31:12.274Z,53.57
2018-12-29T03:33:45.833Z,64.37
2018-12-29T03:36:19.344Z,46.97
2018-12-29T03:38:53.001Z,49.17
2018-12-29T03:41:26.584Z,49.10
2018-12-29T03:44:00.207Z,51.27
2018-12-29T03:46:33.804Z,52.80
2018-12-29T03:49:07.479Z,57.57
2018-12-29T03:51:40.917Z,63.03
2018-12-29T03:54:14.523Z,51.43
2018-12-29T03:56:48.042Z,50.93
2018-12-29T03:59:21.643Z,98.50
2018-12-29T04:01:55.152Z,63.50
2018-12-29T04:04:29.050Z,57.67
2018-12-29T04:07:02.649Z,67.23
2018-12-29T04:09:36.188Z,53.03
2018-12-29T04:12:12.682Z,50.37
2018-12-29T04:14:46.245Z,56.37
2018-12-29T04:17:19.696Z,55.70
2018-12-29T04:19:53.609Z,55.67
2018-12-29T04:22:27.122Z,61.73
2018-12-29T04:25:00.836Z,58.60
2018-12-29T04:27:34.382Z,75.70
2018-12-29T04:30:08.074Z,59.30
2018-12-29T04:32:41.613Z,80.93
2018-12-29T04:35:15.252Z,54.50
2018-12-29T04:37:48.755Z,57.23
2018-12-29T04:40:22.326Z,55.30
2018-12-29T04:42:55.765Z,55.30
2018-12-29T04:45:29.493Z,54.93
2018-12-29T04:48:03.027Z,49.03
2018-12-29T04:50:36.567Z,68.30
2018-12-29T04:53:10.089Z,58.13
2018-12-29T04:55:43.648Z,58.73
2018-12-29T04:58:17.226Z,51.93
2018-12-29T05:00:50.773Z,57.10
2018-12-29T05:03:24.291Z,52.83
2018-12-29T05:05:57.998Z,55.83
2018-12-29T05:08:31.508Z,51.77
2018-12-29T05:11:05.045Z,45.70
2018-12-29T05:13:38.546Z,48.30
2018-12-29T05:16:13.032Z,49.93
2018-12-29T05:18:46.814Z,57.80
2018-12-29T05:21:20.363Z,51.93
2018-12-29T05:23:53.893Z,65.97
2018-12-29T05:26:27.522Z,55.73
2018-12-29T05:29:01.040Z,48.97
2018-12-29T05:31:34.646Z,47.10
2018-12-29T05:34:08.153Z,38.53
2018-12-29T05:36:41.684Z,41.13
2018-12-29T05:39:15.188Z,48.53
2018-12-29T05:41:48.904Z,42.03
2018-12-29T05:44:22.425Z,54.43
2018-12-29T05:46:55.972Z,43.93
2018-12-29T05:49:29.489Z,40.97
2018-12-29T05:52:02.951Z,43.53
2018-12-29T05:54:36.467Z,44.33
2018-12-29T05:57:10.232Z,52.30
2018-12-29T05:59:43.851Z,42.40
2018-12-29T06:02:17.374Z,41.63
2018-12-29T06:04:50.953Z,44.90
2018-12-29T06:07:24.486Z,43.53
2018-12-29T06:09:57.926Z,44.33
2018-12-29T06:12:31.561Z,40.23
2018-12-29T06:15:05.672Z,40.33
2018-12-29T06:17:39.311Z,43.93
2018-12-29T06:20:12.819Z,45.00
2018-12-29T06:22:46.289Z,47.13
2018-12-29T06:25:19.871Z,39.57
2018-12-29T06:27:53.498Z,50.43
2018-12-29T06:30:27.067Z,44.20
2018-12-29T06:33:00.538Z,46.50
2018-12-29T06:35:34.049Z,36.47
2018-12-29T06:38:07.688Z,37.97
2018-12-29T06:40:41.265Z,46.70
2018-12-29T06:43:14.756Z,36.07
2018-12-29T06:45:48.286Z,37.17
2018-12-29T06:48:21.835Z,40.50
2018-12-29T06:50:55.336Z,45.03
2018-12-29T06:53:28.954Z,39.27
2018-12-29T06:56:02.531Z,48.07
2018-12-29T06:58:36.175Z,47.77
2018-12-29T07:01:09.664Z,47.43
2018-12-29T07:03:43.214Z,42.37
2018-12-29T07:06:16.727Z,47.60
2018-12-29T07:08:50.278Z,42.67
2018-12-29T07:11:23.793Z,42.33
2018-12-29T07:13:57.433Z,49.53
2018-12-29T07:16:30.893Z,63.23
2018-12-29T07:19:04.787Z,47.70
2018-12-29T07:21:38.299Z,44.63
2018-12-29T07:24:11.912Z,44.73
2018-12-29T07:26:45.415Z,45.43
2018-12-29T07:29:18.978Z,44.57
2018-12-29T07:31:52.477Z,42.57
2018-12-29T07:34:25.955Z,46.17
2018-12-29T07:36:59.466Z,48.73
2018-12-29T07:39:33.081Z,42.83
2018-12-29T07:42:06.585Z,42.77
2018-12-29T07:44:40.208Z,42.10
2018-12-29T07:47:13.721Z,67.00
2018-12-29T07:49:47.348Z,55.60
2018-12-29T07:52:20.938Z,41.23
2018-12-29T07:54:54.550Z,49.60
2018-12-29T07:57:28.056Z,41.27
2018-12-29T08:00:01.703Z,44.20
2018-12-29T08:02:36.864Z,49.93
2018-12-29T08:05:10.486Z,49.20
2018-12-29T08:07:44.000Z,43.57
2018-12-29T08:10:17.690Z,39.97
2018-12-29T08:12:51.198Z,44.40
2018-12-29T08:15:24.913Z,45.20
2018-12-29T08:17:58.343Z,42.30
2018-12-29T08:20:31.906Z,39.23
2018-12-29T08:23:05.500Z,46.07
2018-12-29T08:25:39.079Z,53.80
2018-12-29T08:28:12.596Z,46.80
2018-12-29T08:30:46.147Z,47.27
2018-12-29T08:33:19.661Z,47.80
2018-12-29T08:35:53.400Z,43.03
2018-12-29T08:38:27.066Z,46.17
2018-12-29T08:41:00.644Z,71.77
2018-12-29T08:43:34.124Z,44.87
2018-12-29T08:46:07.711Z,45.43
2018-12-29T08:48:41.383Z,43.60
2018-12-29T08:51:16.195Z,45.97
2018-12-29T08:53:50.075Z,49.33
2018-12-29T08:56:23.789Z,39.93
2018-12-29T08:58:57.373Z,40.70
2018-12-29T09:01:30.992Z,41.90
2018-12-29T09:04:04.792Z,42.07
2018-12-29T09:06:38.497Z,55.23
2018-12-29T09:09:12.000Z,43.90
2018-12-29T09:11:45.618Z,43.93
2018-12-29T09:14:19.132Z,46.80
2018-12-29T09:16:52.839Z,48.23
2018-12-29T09:19:27.384Z,44.57
2018-12-29T09:22:01.094Z,54.27
2018-12-29T09:24:34.680Z,47.80
2018-12-29T09:27:08.701Z,44.07
2018-12-29T09:29:42.317Z,41.00
2018-12-29T09:32:15.927Z,41.07
2018-12-29T09:34:49.443Z,65.23
2018-12-29T09:37:23.054Z,48.50
2018-12-29T09:39:56.650Z,64.77
2018-12-29T09:42:30.268Z,52.37
2018-12-29T09:45:04.103Z,50.77
2018-12-29T09:47:37.725Z,50.47
2018-12-29T09:50:11.183Z,47.13
2018-12-29T09:52:44.827Z,54.17
2018-12-29T09:55:18.409Z,56.33
2018-12-29T09:57:52.111Z,55.40
2018-12-29T10:00:25.630Z,48.70
2018-12-29T10:02:59.292Z,52.60
2018-12-29T10:05:32.815Z,47.40
2018-12-29T10:08:06.357Z,54.40
2018-12-29T10:10:39.979Z,57.93
2018-12-29T10:13:13.527Z,55.07
2018-12-29T10:15:47.084Z,44.07
2018-12-29T10:18:20.749Z,49.47
2018-12-29T10:20:54.261Z,51.03
2018-12-29T10:23:27.806Z,45.70
2018-12-29T10:26:01.336Z,47.47
2018-12-29T10:28:34.877Z,42.40
2018-12-29T10:31:08.393Z,46.83
2018-12-29T10:33:42.012Z,41.77
2018-12-29T10:36:15.521Z,47.73
2018-12-29T10:38:49.130Z,41.53
2018-12-29T10:41:22.597Z,48.37
2018-12-29T10:43:56.172Z,52.10
2018-12-29T10:46:29.700Z,42.03
2018-12-29T10:49:03.326Z,41.17
2018-12-29T10:51:36.838Z,49.30
2018-12-29T10:54:10.548Z,61.03
2018-12-29T10:56:43.989Z,43.13
2018-12-29T10:59:17.530Z,41.30
2018-12-29T11:01:51.058Z,44.03
2018-12-29T11:04:24.616Z,35.33
2018-12-29T11:06:58.141Z,37.40
2018-12-29T11:09:31.861Z,41.20
2018-12-29T11:12:05.380Z,39.50
2018-12-29T11:14:39.148Z,41.47
2018-12-29T11:17:12.678Z,45.70
2018-12-29T11:19:46.241Z,40.63
2018-12-29T11:22:19.758Z,38.07
2018-12-29T11:24:53.318Z,41.20
2018-12-29T11:27:26.832Z,37.00
2018-12-29T11:30:00.429Z,38.50
2018-12-29T11:32:33.956Z,36.80
2018-12-29T11:35:07.503Z,37.93
2018-12-29T11:37:41.137Z,40.80
2018-12-29T11:40:14.773Z,40.03
2018-12-29T11:42:48.878Z,38.57
2018-12-29T11:45:22.590Z,48.23
2018-12-29T11:47:56.366Z,45.20
2018-12-29T11:50:30.185Z,40.13
2018-12-29T11:53:03.678Z,45.03
2018-12-29T11:55:37.376Z,46.93
2018-12-29T11:58:10.820Z,44.77
2018-12-29T12:00:44.524Z,37.67
2018-12-29T12:03:18.355Z,35.17
2018-12-29T12:05:52.240Z,37.33
2018-12-29T12:08:25.853Z,39.90
2018-12-29T12:10:59.465Z,41.23
2018-12-29T12:13:32.905Z,39.37
2018-12-29T12:16:06.686Z,38.40
2018-12-29T12:18:40.379Z,35.10
2018-12-29T12:21:14.208Z,34.67
2018-12-29T12:23:47.752Z,35.53
2018-12-29T12:26:21.301Z,33.37
2018-12-29T12:28:54.827Z,36.33
2018-12-29T12:31:33.349Z,34.90
2018-12-29T12:34:09.304Z,39.10
2018-12-29T12:36:43.200Z,32.27
2018-12-29T12:39:16.790Z,32.37
2018-12-29T12:41:50.344Z,36.83
2018-12-29T12:44:23.942Z,38.23
2018-12-29T12:46:57.499Z,34.47
2018-12-29T12:49:31.052Z,31.77
2018-12-29T12:52:05.243Z,34.63
2018-12-29T12:54:38.878Z,33.07
2018-12-29T12:57:13.015Z,32.47
2018-12-29T12:59:47.005Z,33.67
2018-12-29T13:02:20.984Z,32.93
2018-12-29T13:05:01.141Z,33.40
2018-12-29T13:07:34.844Z,34.80
2018-12-29T13:10:08.817Z,32.60
2018-12-29T13:12:42.370Z,33.10
2018-12-29T13:15:15.942Z,33.00
2018-12-29T13:18:00.839Z,42.33
2018-12-29T13:20:59.463Z,35.17
2018-12-29T13:23:33.614Z,32.33
2018-12-29T13:26:07.791Z,33.40
2018-12-29T13:28:41.424Z,36.03
2018-12-29T13:31:15.026Z,34.50
2018-12-29T13:33:48.632Z,32.93
2018-12-29T13:36:22.306Z,34.63
2018-12-29T13:38:55.841Z,33.70
2018-12-29T13:41:29.744Z,36.87
2018-12-29T13:44:03.381Z,38.07
2018-12-29T13:46:36.998Z,39.43
2018-12-29T13:49:10.502Z,35.93
2018-12-29T13:51:44.094Z,35.20
2018-12-29T13:54:18.065Z,35.83
2018-12-29T13:57:04.315Z,38.10
2018-12-29T13:59:37.837Z,43.17
2018-12-29T14:02:11.735Z,34.53
2018-12-29T14:04:45.278Z,35.87
2018-12-29T14:07:18.792Z,35.00
2018-12-29T14:09:52.431Z,36.33
2018-12-29T14:12:25.949Z,36.13
2018-12-29T14:15:00.477Z,35.23
2018-12-29T14:17:34.009Z,37.07
2018-12-29T14:20:07.824Z,36.80
2018-12-29T14:22:41.433Z,36.70
2018-12-29T14:25:15.136Z,35.77
2018-12-29T14:27:48.660Z,37.40
2018-12-29T14:30:22.319Z,36.00
2018-12-29T14:32:55.832Z,39.07
2018-12-29T14:35:29.488Z,40.00
2018-12-29T14:38:03.086Z,35.03
2018-12-29T14:40:36.661Z,38.77
2018-12-29T14:43:10.177Z,40.90
2018-12-29T14:45:43.913Z,35.53
2018-12-29T14:48:17.447Z,38.77
2018-12-29T14:50:51.095Z,38.40
2018-12-29T14:53:24.604Z,38.43
2018-12-29T14:55:58.402Z,42.73
2018-12-29T14:58:32.006Z,39.70
2018-12-29T15:01:05.692Z,38.13
2018-12-29T15:03:39.291Z,38.77
2018-12-29T15:06:13.250Z,38.43
2018-12-29T15:08:46.765Z,39.50
2018-12-29T15:11:20.303Z,37.07
2018-12-29T15:13:53.812Z,36.23
2018-12-29T15:16:27.454Z,41.63
2018-12-29T15:19:00.979Z,39.40
2018-12-29T15:21:34.860Z,41.57
2018-12-29T15:24:09.011Z,44.73
2018-12-29T15:26:42.635Z,42.17
2018-12-29T15:29:16.534Z,44.00
2018-12-29T15:31:50.085Z,46.43
2018-12-29T15:34:23.586Z,52.40
2018-12-29T15:36:57.219Z,51.33
2018-12-29T15:39:33.110Z,51.77
2018-12-29T15:42:07.334Z,53.50
2018-12-29T15:44:40.935Z,56.23
2018-12-29T15:47:14.703Z,69.40
2018-12-29T15:49:48.494Z,62.43
2018-12-29T15:52:22.372Z,103.20
2018-12-29T15:54:56.122Z,70.30
2018-12-29T15:57:29.695Z,83.60
2018-12-29T16:00:03.278Z,63.03
2018-12-29T16:02:36.924Z,74.50
2018-12-29T16:05:10.633Z,87.53
2018-12-29T16:07:44.555Z,81.90
2018-12-29T16:10:18.223Z,76.37
2018-12-29T16:12:52.019Z,58.27
2018-12-29T16:15:26.042Z,66.53
2018-12-29T16:17:59.714Z,79.00
2018-12-29T16:20:33.229Z,78.50
2018-12-29T16:23:08.826Z,63.47
2018-12-29T16:25:42.444Z,79.10
2018-12-29T16:28:16.014Z,112.33
2018-12-29T16:30:49.540Z,69.60
2018-12-29T16:33:23.348Z,65.30
2018-12-29T16:35:57.330Z,62.13
2018-12-29T16:38:30.789Z,63.10
2018-12-29T16:41:04.766Z,85.53
2018-12-29T16:43:38.321Z,91.70
2018-12-29T16:46:11.843Z,84.80
2018-12-29T16:48:45.485Z,70.33
2018-12-29T16:51:19.472Z,69.10
2018-12-29T16:53:53.184Z,78.47
2018-12-29T16:56:26.797Z,68.73
2018-12-29T16:59:00.338Z,75.23
2018-12-29T17:01:33.860Z,63.13
2018-12-29T17:04:07.497Z,53.93
2018-12-29T17:06:41.293Z,63.30
2018-12-29T17:09:14.793Z,57.33
2018-12-29T17:11:52.389Z,47.97
2018-12-29T17:14:23.708Z,53.00
2018-12-29T17:16:57.228Z,38.40
2018-12-29T17:19:31.009Z,50.53
2018-12-29T17:22:04.522Z,57.93
2018-12-29T17:24:38.257Z,54.77
2018-12-29T17:27:11.952Z,75.00
2018-12-29T17:29:45.518Z,55.33
2018-12-29T17:32:18.959Z,61.70
2018-12-29T17:34:52.586Z,60.50
2018-12-29T17:37:26.099Z,51.00
2018-12-29T17:39:59.726Z,67.73
2018-12-29T17:42:33.522Z,50.23
2018-12-29T17:45:07.139Z,52.60
2018-12-29T17:47:40.649Z,51.37
2018-12-29T17:50:14.373Z,58.60
2018-12-29T17:52:47.888Z,47.20
2018-12-29T17:55:21.430Z,60.47
2018-12-29T17:57:55.324Z,49.03
2018-12-29T18:00:30.323Z,57.87
2018-12-29T18:03:04.106Z,49.23
2018-12-29T18:05:37.761Z,45.50
2018-12-29T18:08:11.369Z,43.60
2018-12-29T18:10:45.104Z,52.87
2018-12-29T18:13:18.610Z,42.83
2018-12-29T18:15:52.257Z,53.27
2018-12-29T18:18:25.788Z,49.27
2018-12-29T18:20:59.261Z,50.93
2018-12-29T18:23:33.224Z,41.50
2018-12-29T18:26:06.935Z,40.57
2018-12-29T18:28:40.528Z,40.77
2018-12-29T18:31:14.028Z,48.13
2018-12-29T18:33:47.651Z,47.80
2018-12-29T18:36:21.364Z,53.33
2018-12-29T18:38:54.887Z,41.57
2018-12-29T18:41:28.795Z,47.57
2018-12-29T18:44:02.409Z,41.70
2018-12-29T18:46:36.024Z,45.77
2018-12-29T18:49:09.687Z,37.37
2018-12-29T18:51:43.350Z,50.80
2018-12-29T18:54:16.885Z,44.43
2018-12-29T18:56:50.435Z,34.97
2018-12-29T18:59:23.947Z,36.00
2018-12-29T19:01:58.066Z,36.87
2018-12-29T19:04:31.701Z,32.90
2018-12-29T19:07:05.309Z,39.57
2018-12-29T19:09:38.908Z,43.03
2018-12-29T19:12:12.365Z,32.47
2018-12-29T19:14:45.810Z,40.53
2018-12-29T19:17:19.389Z,45.73
2018-12-29T19:19:53.100Z,57.77
2018-12-29T19:22:26.797Z,59.53
2018-12-29T19:25:00.374Z,71.73
2018-12-29T19:27:34.164Z,44.83
2018-12-29T19:30:08.280Z,53.73
2018-12-29T19:32:41.978Z,35.10
2018-12-29T19:35:15.872Z,37.93
2018-12-29T19:37:49.422Z,39.83
2018-12-29T19:40:22.895Z,59.50
2018-12-29T19:42:56.793Z,48.17
2018-12-29T19:45:30.387Z,38.50
2018-12-29T19:48:04.313Z,42.60
2018-12-29T19:50:38.113Z,46.50
2018-12-29T19:53:11.736Z,38.37
2018-12-29T19:55:45.269Z,57.87
2018-12-29T19:58:18.741Z,65.13
2018-12-29T20:00:52.365Z,40.37
2018-12-29T20:03:25.909Z,43.87
2018-12-29T20:05:59.513Z,48.57
2018-12-29T20:08:33.805Z,62.50
2018-12-29T20:11:07.380Z,38.17
2018-12-29T20:13:40.951Z,36.77
2018-12-29T20:16:14.934Z,45.80
2018-12-29T20:18:48.937Z,32.83
2018-12-29T20:21:22.391Z,37.20
2018-12-29T20:23:55.967Z,33.40
2018-12-29T20:26:29.588Z,25.23
2018-12-29T20:29:03.470Z,26.73
2018-12-29T20:31:36.980Z,43.37
2018-12-29T20:34:10.799Z,42.50
2018-12-29T20:36:44.325Z,32.90
2018-12-29T20:39:17.908Z,22.57
2018-12-29T20:41:51.395Z,21.27
2018-12-29T20:44:24.945Z,19.30
2018-12-29T20:47:01.429Z,19.80
2018-12-29T20:49:35.077Z,23.87
2018-12-29T20:52:08.587Z,12.23
2018-12-29T20:54:42.259Z,11.50
2018-12-29T20:57:16.146Z,16.60
2018-12-29T20:59:49.697Z,24.50
2018-12-29T21:02:23.303Z,14.73
2018-12-29T21:04:56.858Z,16.07
2018-12-29T21:07:30.743Z,11.07
2018-12-29T21:10:05.912Z,15.37
2018-12-29T21:12:39.556Z,8.97
2018-12-29T21:15:13.096Z,5.70
2018-12-29T21:17:46.960Z,4.93
2018-12-29T21:20:20.692Z,6.70
2018-12-29T21:22:54.125Z,7.00
2018-12-29T21:25:27.735Z,4.10
2018-12-29T21:28:01.458Z,3.80
2018-12-29T21:30:34.999Z,5.53
2018-12-29T21:33:08.518Z,3.27
2018-12-29T21:35:42.000Z,3.27
2018-12-29T21:38:15.855Z,3.40
2018-12-29T21:40:49.468Z,3.47
2018-12-29T21:43:22.981Z,3.00
2018-12-29T21:45:56.520Z,3.07
2018-12-29T21:48:30.211Z,4.10
2018-12-29T21:51:03.831Z,3.90
2018-12-29T21:53:37.341Z,3.70
2018-12-29T21:56:10.965Z,4.47
2018-12-29T21:58:44.499Z,4.87
2018-12-29T22:01:17.962Z,7.37
2018-12-29T22:03:51.553Z,4.90
2018-12-29T22:06:25.094Z,6.87
2018-12-29T22:08:58.693Z,4.50
2018-12-29T22:11:32.309Z,5.53
2018-12-29T22:14:05.887Z,5.00
2018-12-29T22:16:39.492Z,3.90
2018-12-29T22:19:13.014Z,4.97
2018-12-29T22:21:46.613Z,5.47
2018-12-29T22:24:20.111Z,2.90
2018-12-29T22:26:53.817Z,5.10
2018-12-29T22:29:27.334Z,3.47
2018-12-29T22:32:00.859Z,4.27
2018-12-29T22:34:34.367Z,4.40
2018-12-29T22:37:07.998Z,4.33
2018-12-29T22:39:41.426Z,4.80
2018-12-29T22:42:14.959Z,5.10
2018-12-29T22:44:48.482Z,3.43
2018-12-29T22:47:22.032Z,2.97
2018-12-29T22:49:55.541Z,3.50
2018-12-29T22:52:29.103Z,4.77
2018-12-29T22:55:02.637Z,3.90
2018-12-29T22:57:36.413Z,2.50
2018-12-29T23:00:13.870Z,13.57
2018-12-29T23:02:47.519Z,3.80
2018-12-29T23:05:21.296Z,3.10
2018-12-29T23:07:54.920Z,2.70
2018-12-29T23:10:28.354Z,2.80
2018-12-29T23:13:02.270Z,2.20
2018-12-29T23:15:35.698Z,2.33
2018-12-29T23:18:09.308Z,2.20
2018-12-29T23:20:48.992Z,2.00
2018-12-29T23:23:18.340Z,1.83
2018-12-29T23:25:52.137Z,2.03
2018-12-29T23:28:25.766Z,2.03
2018-12-29T23:30:59.548Z,1.63
2018-12-29T23:33:33.158Z,2.00
2018-12-29T23:36:06.694Z,1.73
2018-12-29T23:38:40.236Z,1.57
2018-12-29T23:41:13.808Z,1.23
2018-12-29T23:43:47.592Z,1.17
2018-12-29T23:46:21.118Z,1.50
2018-12-29T23:48:54.752Z,1.37
2018-12-29T23:51:28.323Z,1.10
2018-12-29T23:54:01.960Z,1.10
2018-12-29T23:56:35.647Z,0.87
2018-12-29T23:59:09.278Z,1.07
